createdAt,value
2023-05-21T00:00:25.401Z,47.97
2023-05-21T00:02:52.235Z,44.30
2023-05-21T00:05:19.133Z,41.10
2023-05-21T00:07:47.208Z,45.10
2023-05-21T00:10:14.283Z,50.93
2023-05-21T00:12:41.882Z,43.30
2023-05-21T00:15:09.538Z,45.00
2023-05-21T00:17:39.098Z,55.63
2023-05-21T00:20:07.425Z,45.63
2023-05-21T00:22:34.166Z,45.50
2023-05-21T00:25:01.028Z,49.80
2023-05-21T00:27:27.781Z,46.80
2023-05-21T00:29:54.522Z,45.20
2023-05-21T00:32:21.256Z,45.30
2023-05-21T00:34:48.290Z,50.63
2023-05-21T00:37:15.318Z,44.40
2023-05-21T00:39:42.451Z,46.07
2023-05-21T00:42:09.452Z,47.00
2023-05-21T00:44:36.210Z,45.50
2023-05-21T00:47:03.608Z,48.10
2023-05-21T00:49:31.524Z,48.80
2023-05-21T00:52:01.421Z,44.60
2023-05-21T00:54:28.873Z,46.57
2023-05-21T00:56:56.258Z,47.87
2023-05-21T00:59:24.507Z,46.00
2023-05-21T01:01:56.045Z,52.20
2023-05-21T01:04:23.689Z,48.10
2023-05-21T01:06:50.645Z,46.20
2023-05-21T01:09:17.413Z,49.57
2023-05-21T01:11:47.818Z,46.67
2023-05-21T01:14:16.468Z,53.20
2023-05-21T01:16:46.748Z,50.23
2023-05-21T01:19:19.800Z,50.23
2023-05-21T01:21:51.636Z,50.73
2023-05-21T01:24:18.960Z,50.83
2023-05-21T01:26:46.611Z,48.47
2023-05-21T01:29:14.466Z,50.53
2023-05-21T01:31:43.995Z,53.13
2023-05-21T01:34:13.648Z,52.50
2023-05-21T01:36:59.759Z,54.93
2023-05-21T01:39:32.455Z,49.07
2023-05-21T01:42:00.493Z,49.83
2023-05-21T01:44:28.854Z,47.23
2023-05-21T01:46:58.561Z,55.40
2023-05-21T01:49:25.825Z,47.97
2023-05-21T01:51:52.677Z,53.97
2023-05-21T01:54:19.471Z,53.53
2023-05-21T01:56:47.830Z,54.23
2023-05-21T01:59:14.570Z,49.73
2023-05-21T02:01:42.070Z,53.70
2023-05-21T02:04:09.024Z,53.27
2023-05-21T02:06:36.773Z,55.53
2023-05-21T02:09:03.851Z,51.60
2023-05-21T02:11:30.704Z,58.47
2023-05-21T02:13:57.606Z,57.10
2023-05-21T02:16:25.740Z,54.33
2023-05-21T02:18:54.428Z,52.83
2023-05-21T02:21:21.162Z,56.20
2023-05-21T02:23:47.953Z,53.93
2023-05-21T02:26:14.716Z,55.30
2023-05-21T02:28:41.505Z,55.17
2023-05-21T02:31:08.247Z,52.43
2023-05-21T02:33:35.104Z,51.37
2023-05-21T02:36:01.910Z,50.87
2023-05-21T02:38:28.610Z,54.03
2023-05-21T02:40:55.746Z,52.07
2023-05-21T02:43:22.519Z,59.27
2023-05-21T02:45:51.349Z,56.10
2023-05-21T02:48:18.117Z,59.23
2023-05-21T02:50:44.872Z,51.27
2023-05-21T02:53:11.601Z,57.03
2023-05-21T02:55:38.452Z,53.53
2023-05-21T02:58:06.420Z,56.20
2023-05-21T03:00:33.251Z,54.30
2023-05-21T03:03:00.314Z,58.33
2023-05-21T03:05:27.221Z,60.60
2023-05-21T03:07:53.980Z,57.43
2023-05-21T03:10:20.952Z,55.80
2023-05-21T03:12:47.742Z,60.60
2023-05-21T03:15:14.905Z,53.53
2023-05-21T03:17:44.638Z,61.47
2023-05-21T03:20:16.281Z,64.30
2023-05-21T03:22:44.510Z,62.80
2023-05-21T03:25:12.312Z,62.00
2023-05-21T03:27:39.754Z,60.50
2023-05-21T03:30:07.065Z,59.57
2023-05-21T03:32:33.975Z,65.10
2023-05-21T03:35:00.729Z,61.30
2023-05-21T03:37:27.557Z,59.37
2023-05-21T03:39:54.308Z,62.17
2023-05-21T03:42:21.185Z,64.27
2023-05-21T03:44:48.015Z,60.90
2023-05-21T03:47:14.868Z,61.90
2023-05-21T03:49:41.606Z,62.63
2023-05-21T03:52:08.367Z,63.87
2023-05-21T03:54:35.899Z,63.80
2023-05-21T03:57:02.721Z,62.50
2023-05-21T03:59:29.470Z,70.13
2023-05-21T04:01:56.287Z,60.57
2023-05-21T04:04:23.203Z,58.73
2023-05-21T04:06:51.556Z,58.83
2023-05-21T04:09:18.342Z,68.57
2023-05-21T04:11:45.151Z,61.53
2023-05-21T04:14:11.912Z,59.37
2023-05-21T04:16:38.770Z,62.00
2023-05-21T04:19:06.646Z,60.87
2023-05-21T04:21:33.743Z,60.70
2023-05-21T04:24:00.843Z,60.40
2023-05-21T04:26:28.065Z,58.57
2023-05-21T04:28:55.455Z,65.30
2023-05-21T04:31:23.258Z,59.57
2023-05-21T04:33:50.792Z,56.17
2023-05-21T04:36:17.552Z,60.30
2023-05-21T04:38:44.334Z,59.87
2023-05-21T04:41:11.036Z,55.57
2023-05-21T04:43:38.327Z,58.27
2023-05-21T04:46:06.028Z,58.10
2023-05-21T04:48:32.760Z,60.30
2023-05-21T04:50:59.869Z,54.93
2023-05-21T04:53:26.772Z,58.43
2023-05-21T04:55:53.569Z,57.63
2023-05-21T04:58:20.485Z,54.57
2023-05-21T05:00:47.530Z,57.00
2023-05-21T05:03:14.796Z,53.97
2023-05-21T05:05:42.016Z,55.03
2023-05-21T05:08:08.916Z,55.57
2023-05-21T05:10:36.245Z,53.80
2023-05-21T05:13:03.266Z,56.83
2023-05-21T05:15:30.020Z,54.43
2023-05-21T05:17:56.833Z,52.50
2023-05-21T05:20:23.629Z,50.63
2023-05-21T05:22:50.591Z,50.00
2023-05-21T05:25:17.423Z,48.63
2023-05-21T05:27:44.317Z,50.53
2023-05-21T05:30:11.507Z,55.33
2023-05-21T05:32:38.409Z,51.47
2023-05-21T05:35:05.978Z,52.70
2023-05-21T05:37:33.837Z,48.03
2023-05-21T05:40:00.666Z,52.17
2023-05-21T05:42:27.458Z,49.57
2023-05-21T05:44:54.200Z,47.17
2023-05-21T05:47:21.746Z,49.77
2023-05-21T05:49:48.780Z,49.63
2023-05-21T05:52:16.032Z,51.40
2023-05-21T05:54:42.803Z,48.87
2023-05-21T05:57:09.559Z,46.50
2023-05-21T05:59:36.419Z,44.77
2023-05-21T06:02:03.300Z,46.43
2023-05-21T06:04:30.221Z,47.97
2023-05-21T06:06:57.717Z,46.83
2023-05-21T06:09:25.072Z,49.77
2023-05-21T06:11:52.272Z,45.63
2023-05-21T06:14:19.034Z,52.13
2023-05-21T06:16:46.214Z,50.50
2023-05-21T06:19:13.000Z,50.83
2023-05-21T06:21:39.794Z,50.47
2023-05-21T06:24:07.065Z,42.83
2023-05-21T06:26:33.772Z,42.50
2023-05-21T06:29:00.591Z,53.27
2023-05-21T06:31:27.909Z,48.33
2023-05-21T06:33:54.873Z,44.47
2023-05-21T06:36:22.059Z,48.87
2023-05-21T06:38:48.945Z,43.20
2023-05-21T06:41:15.854Z,45.10
2023-05-21T06:43:42.697Z,45.17
2023-05-21T06:46:09.557Z,40.10
2023-05-21T06:48:36.629Z,41.17
2023-05-21T06:51:03.468Z,44.67
2023-05-21T06:53:30.173Z,46.97
2023-05-21T06:55:57.318Z,52.20
2023-05-21T06:58:24.149Z,49.53
2023-05-21T07:00:51.013Z,46.37
2023-05-21T07:03:18.027Z,43.90
2023-05-21T07:05:44.962Z,43.30
2023-05-21T07:08:12.330Z,45.50
2023-05-21T07:10:39.254Z,48.33
2023-05-21T07:13:06.100Z,43.17
2023-05-21T07:15:32.870Z,41.10
2023-05-21T07:17:59.790Z,42.03
2023-05-21T07:20:26.601Z,43.37
2023-05-21T07:22:53.371Z,42.90
2023-05-21T07:25:20.308Z,47.20
2023-05-21T07:27:47.136Z,39.90
2023-05-21T07:30:14.778Z,41.97
2023-05-21T07:32:42.098Z,39.57
2023-05-21T07:35:09.229Z,39.30
2023-05-21T07:37:36.121Z,40.13
2023-05-21T07:40:03.437Z,44.27
2023-05-21T07:42:31.122Z,42.07
2023-05-21T07:44:57.985Z,40.20
2023-05-21T07:47:24.746Z,42.23
2023-05-21T07:49:51.537Z,35.73
2023-05-21T07:52:18.596Z,36.03
2023-05-21T07:54:45.428Z,37.97
2023-05-21T07:57:12.186Z,37.97
2023-05-21T07:59:38.913Z,37.70
2023-05-21T08:02:05.687Z,37.17
2023-05-21T08:04:32.548Z,36.30
2023-05-21T08:06:59.658Z,38.20
2023-05-21T08:09:26.461Z,42.43
2023-05-21T08:11:53.196Z,36.20
2023-05-21T08:14:19.955Z,37.30
2023-05-21T08:16:47.074Z,38.63
2023-05-21T08:19:13.930Z,42.50
2023-05-21T08:21:40.801Z,37.70
2023-05-21T08:24:07.703Z,34.37
2023-05-21T08:26:34.491Z,38.03
2023-05-21T08:29:01.624Z,37.53
2023-05-21T08:31:28.392Z,41.40
2023-05-21T08:33:56.526Z,35.53
2023-05-21T08:36:24.566Z,39.70
2023-05-21T08:38:51.399Z,41.83
2023-05-21T08:41:22.048Z,35.57
2023-05-21T08:43:54.962Z,36.73
2023-05-21T08:46:24.850Z,36.10
2023-05-21T08:48:55.771Z,46.93
2023-05-21T08:51:23.583Z,34.17
2023-05-21T08:53:51.314Z,36.00
2023-05-21T08:56:18.401Z,33.43
2023-05-21T08:58:49.483Z,34.83
2023-05-21T09:01:19.530Z,34.93
2023-05-21T09:03:47.601Z,39.60
2023-05-21T09:06:14.587Z,33.43
2023-05-21T09:08:49.163Z,37.17
2023-05-21T09:11:16.524Z,37.77
2023-05-21T09:13:44.900Z,43.43
2023-05-21T09:16:12.054Z,34.77
2023-05-21T09:18:38.797Z,35.37
2023-05-21T09:21:26.153Z,36.70
2023-05-21T09:23:58.217Z,38.77
2023-05-21T09:26:26.542Z,37.77
2023-05-21T09:28:58.033Z,34.80
2023-05-21T09:31:25.949Z,31.70
2023-05-21T09:33:53.471Z,40.67
2023-05-21T09:36:21.127Z,36.00
2023-05-21T09:38:52.373Z,35.47
2023-05-21T09:41:21.898Z,30.90
2023-05-21T09:43:49.566Z,31.80
2023-05-21T09:46:20.826Z,35.23
2023-05-21T09:48:47.650Z,31.80
2023-05-21T09:51:19.814Z,35.50
2023-05-21T09:53:58.586Z,38.73
2023-05-21T09:56:30.689Z,30.83
2023-05-21T09:59:04.152Z,30.00
2023-05-21T10:01:33.457Z,32.47
2023-05-21T10:04:02.876Z,36.67
2023-05-21T10:06:31.273Z,34.53
2023-05-21T10:09:03.984Z,31.00
2023-05-21T10:11:33.669Z,29.80
2023-05-21T10:14:09.019Z,37.13
2023-05-21T10:16:37.076Z,28.70
2023-05-21T10:19:10.906Z,28.23
2023-05-21T10:21:39.952Z,29.07
2023-05-21T10:24:09.247Z,27.53
2023-05-21T10:26:36.669Z,32.10
2023-05-21T10:29:03.585Z,35.63
2023-05-21T10:31:30.797Z,29.17
2023-05-21T10:33:58.167Z,30.40
2023-05-21T10:36:25.965Z,37.57
2023-05-21T10:38:54.187Z,39.07
2023-05-21T10:41:22.565Z,29.63
2023-05-21T10:44:17.415Z,36.43
2023-05-21T10:47:16.912Z,27.73
2023-05-21T10:50:02.262Z,27.03
2023-05-21T10:53:09.946Z,29.80
2023-05-21T10:55:46.987Z,31.33
2023-05-21T10:58:30.311Z,31.70
2023-05-21T11:00:59.418Z,27.40
2023-05-21T11:03:26.588Z,25.10
2023-05-21T11:05:56.294Z,39.90
2023-05-21T11:08:25.822Z,28.00
2023-05-21T11:10:54.772Z,35.90
2023-05-21T11:13:21.833Z,32.57
2023-05-21T11:15:57.514Z,27.87
2023-05-21T11:18:30.895Z,39.83
2023-05-21T11:21:14.708Z,31.30
2023-05-21T11:24:02.644Z,32.57
2023-05-21T11:26:51.986Z,39.83
2023-05-21T11:29:22.000Z,27.83
2023-05-21T11:31:59.128Z,31.63
2023-05-21T11:34:28.935Z,31.83
2023-05-21T11:37:23.201Z,28.43
2023-05-21T11:39:51.299Z,27.47
2023-05-21T11:42:35.252Z,33.63
2023-05-21T11:45:05.783Z,30.00
2023-05-21T11:47:33.090Z,33.93
2023-05-21T11:50:02.007Z,31.87
2023-05-21T11:52:30.973Z,34.60
2023-05-21T11:54:58.252Z,31.40
2023-05-21T11:57:30.651Z,31.20
2023-05-21T11:59:59.058Z,29.27
2023-05-21T12:02:28.514Z,29.77
2023-05-21T12:05:00.003Z,34.77
2023-05-21T12:07:31.427Z,28.93
2023-05-21T12:09:58.847Z,28.07
2023-05-21T12:12:30.791Z,40.73
2023-05-21T12:15:02.689Z,27.87
2023-05-21T12:17:31.684Z,30.20
2023-05-21T12:19:59.130Z,29.73
2023-05-21T12:22:27.933Z,28.17
2023-05-21T12:24:54.753Z,27.93
2023-05-21T12:27:22.117Z,31.57
2023-05-21T12:29:53.055Z,30.93
2023-05-21T12:32:21.188Z,30.60
2023-05-21T12:34:53.250Z,37.90
2023-05-21T12:37:25.737Z,30.90
2023-05-21T12:39:58.311Z,34.83
2023-05-21T12:42:30.553Z,34.77
2023-05-21T12:44:57.808Z,38.73
2023-05-21T12:47:26.583Z,32.67
2023-05-21T12:50:01.801Z,27.50
2023-05-21T12:52:29.234Z,39.30
2023-05-21T12:54:57.049Z,27.13
2023-05-21T12:57:25.811Z,30.20
2023-05-21T12:59:52.576Z,29.93
2023-05-21T13:02:20.694Z,27.67
2023-05-21T13:04:48.635Z,31.00
2023-05-21T13:07:16.706Z,33.83
2023-05-21T13:09:43.476Z,35.80
2023-05-21T13:12:13.040Z,37.03
2023-05-21T13:14:39.876Z,31.73
2023-05-21T13:17:07.062Z,33.27
2023-05-21T13:19:34.055Z,30.80
2023-05-21T13:22:01.516Z,27.50
2023-05-21T13:24:28.323Z,30.47
2023-05-21T13:26:55.095Z,30.47
2023-05-21T13:29:21.889Z,29.17
2023-05-21T13:31:48.641Z,27.37
2023-05-21T13:34:15.460Z,41.07
2023-05-21T13:36:42.326Z,28.30
2023-05-21T13:39:09.191Z,35.13
2023-05-21T13:41:35.985Z,30.40
2023-05-21T13:44:02.717Z,33.00
2023-05-21T13:46:29.599Z,33.13
2023-05-21T13:48:56.710Z,28.50
2023-05-21T13:51:38.121Z,33.23
2023-05-21T13:54:06.196Z,28.30
2023-05-21T13:56:33.845Z,28.93
2023-05-21T13:59:01.669Z,34.47
2023-05-21T14:01:28.625Z,30.00
2023-05-21T14:03:55.766Z,34.97
2023-05-21T14:06:22.583Z,32.00
2023-05-21T14:08:49.375Z,33.00
2023-05-21T14:11:16.415Z,29.30
2023-05-21T14:13:43.274Z,32.53
2023-05-21T14:16:10.131Z,38.40
2023-05-21T14:18:36.875Z,28.70
2023-05-21T14:21:03.729Z,30.00
2023-05-21T14:23:30.497Z,34.80
2023-05-21T14:25:57.279Z,28.43
2023-05-21T14:28:24.095Z,32.60
2023-05-21T14:30:50.960Z,39.83
2023-05-21T14:33:17.803Z,38.53
2023-05-21T14:35:44.601Z,31.53
2023-05-21T14:38:11.335Z,29.50
2023-05-21T14:40:38.086Z,43.43
2023-05-21T14:43:05.714Z,30.93
2023-05-21T14:45:35.384Z,29.47
2023-05-21T14:48:08.266Z,30.30
2023-05-21T14:50:35.909Z,29.57
2023-05-21T14:53:10.659Z,33.50
2023-05-21T14:55:38.380Z,27.87
2023-05-21T14:58:06.145Z,37.40
2023-05-21T15:00:34.147Z,34.73
2023-05-21T15:03:01.163Z,36.47
2023-05-21T15:05:29.414Z,35.93
2023-05-21T15:07:56.986Z,32.03
2023-05-21T15:10:25.548Z,31.50
2023-05-21T15:12:52.987Z,33.13
2023-05-21T15:15:23.282Z,32.50
2023-05-21T15:17:50.879Z,32.17
2023-05-21T15:20:17.939Z,31.13
2023-05-21T15:22:46.481Z,32.60
2023-05-21T15:25:13.304Z,30.07
2023-05-21T15:27:40.351Z,29.47
2023-05-21T15:30:07.587Z,28.20
2023-05-21T15:32:34.350Z,27.10
2023-05-21T15:35:01.405Z,28.50
2023-05-21T15:37:31.993Z,27.47
2023-05-21T15:39:58.753Z,29.57
2023-05-21T15:42:26.271Z,28.70
2023-05-21T15:44:53.347Z,33.87
2023-05-21T15:47:20.375Z,30.17
2023-05-21T15:49:47.185Z,30.63
2023-05-21T15:52:14.035Z,33.10
2023-05-21T15:54:40.895Z,36.13
2023-05-21T15:57:07.726Z,33.90
2023-05-21T15:59:34.584Z,33.70
2023-05-21T16:02:01.669Z,28.63
2023-05-21T16:04:28.540Z,28.57
2023-05-21T16:06:55.508Z,36.20
2023-05-21T16:09:22.362Z,28.30
2023-05-21T16:11:49.142Z,31.10
2023-05-21T16:14:15.993Z,27.17
2023-05-21T16:16:42.804Z,29.93
2023-05-21T16:19:09.613Z,31.20
2023-05-21T16:21:36.709Z,33.60
2023-05-21T16:24:04.045Z,33.20
2023-05-21T16:26:30.842Z,27.30
2023-05-21T16:28:58.876Z,31.13
2023-05-21T16:31:25.849Z,26.87
2023-05-21T16:33:52.626Z,30.90
2023-05-21T16:36:19.468Z,35.53
2023-05-21T16:38:46.306Z,29.13
2023-05-21T16:41:13.829Z,34.40
2023-05-21T16:43:40.843Z,25.93
2023-05-21T16:46:07.758Z,28.00
2023-05-21T16:48:36.098Z,33.87
2023-05-21T16:51:04.816Z,30.50
2023-05-21T16:53:31.832Z,29.50
2023-05-21T16:55:58.906Z,27.60
2023-05-21T16:58:25.694Z,28.00
2023-05-21T17:00:52.507Z,41.00
2023-05-21T17:03:19.669Z,30.80
2023-05-21T17:05:46.486Z,27.30
2023-05-21T17:08:13.320Z,26.40
2023-05-21T17:10:40.137Z,26.20
2023-05-21T17:13:20.766Z,27.03
2023-05-21T17:15:49.793Z,30.07
2023-05-21T17:18:16.607Z,31.77
2023-05-21T17:20:43.793Z,30.70
2023-05-21T17:23:11.705Z,26.97
2023-05-21T17:25:39.406Z,25.83
2023-05-21T17:28:06.680Z,27.90
2023-05-21T17:30:33.634Z,28.80
2023-05-21T17:33:02.226Z,25.80
2023-05-21T17:35:29.211Z,30.53
2023-05-21T17:37:56.224Z,30.30
2023-05-21T17:40:24.552Z,35.40
2023-05-21T17:42:55.412Z,30.23
2023-05-21T17:45:22.230Z,30.30
2023-05-21T17:47:49.222Z,31.10
2023-05-21T17:50:16.504Z,34.43
2023-05-21T17:52:43.382Z,28.43
2023-05-21T17:55:10.752Z,31.57
2023-05-21T17:57:37.515Z,26.40
2023-05-21T18:00:06.750Z,30.50
2023-05-21T18:02:33.749Z,25.57
2023-05-21T18:05:01.313Z,27.57
2023-05-21T18:07:28.107Z,38.03
2023-05-21T18:09:55.098Z,37.50
2023-05-21T18:12:21.901Z,30.73
2023-05-21T18:14:48.699Z,25.10
2023-05-21T18:17:15.511Z,29.30
2023-05-21T18:19:42.356Z,28.53
2023-05-21T18:22:09.441Z,29.63
2023-05-21T18:24:37.492Z,33.83
2023-05-21T18:27:04.446Z,38.57
2023-05-21T18:29:31.244Z,35.47
2023-05-21T18:31:58.097Z,35.73
2023-05-21T18:34:24.891Z,31.57
2023-05-21T18:36:54.533Z,30.33
2023-05-21T18:39:24.626Z,26.93
2023-05-21T18:42:01.550Z,30.70
2023-05-21T18:44:38.741Z,34.13
2023-05-21T18:47:07.573Z,29.67
2023-05-21T18:49:36.082Z,28.00
2023-05-21T18:52:04.116Z,26.03
2023-05-21T18:54:31.089Z,27.30
2023-05-21T18:57:00.255Z,27.80
2023-05-21T18:59:29.553Z,31.37
2023-05-21T19:01:56.456Z,29.63
2023-05-21T19:04:23.276Z,28.67
2023-05-21T19:06:50.086Z,28.37
2023-05-21T19:09:17.018Z,25.97
2023-05-21T19:11:44.013Z,27.37
2023-05-21T19:14:11.082Z,26.57
2023-05-21T19:16:38.026Z,27.43
2023-05-21T19:19:05.974Z,29.00
2023-05-21T19:21:33.086Z,31.17
2023-05-21T19:23:59.905Z,31.73
2023-05-21T19:26:26.870Z,33.90
2023-05-21T19:28:54.621Z,25.67
2023-05-21T19:31:22.893Z,30.33
2023-05-21T19:33:49.942Z,28.73
2023-05-21T19:36:17.204Z,32.60
2023-05-21T19:38:48.416Z,35.97
2023-05-21T19:41:19.621Z,42.67
2023-05-21T19:43:46.503Z,36.13
2023-05-21T19:46:15.954Z,34.63
2023-05-21T19:48:45.323Z,39.50
2023-05-21T19:51:12.164Z,33.13
2023-05-21T19:53:39.281Z,47.17
2023-05-21T19:56:06.242Z,29.43
2023-05-21T19:58:33.192Z,34.37
2023-05-21T20:01:00.252Z,30.13
2023-05-21T20:03:28.027Z,28.83
2023-05-21T20:05:55.030Z,26.43
2023-05-21T20:08:22.474Z,25.97
2023-05-21T20:10:51.808Z,29.07
2023-05-21T20:13:19.437Z,26.80
2023-05-21T20:15:47.842Z,28.47
2023-05-21T20:18:15.459Z,30.13
2023-05-21T20:20:42.869Z,33.03
2023-05-21T20:23:09.710Z,26.20
2023-05-21T20:25:36.468Z,32.47
2023-05-21T20:28:04.053Z,30.83
2023-05-21T20:30:34.980Z,24.67
2023-05-21T20:33:03.042Z,29.87
2023-05-21T20:35:30.458Z,25.50
2023-05-21T20:37:57.342Z,27.30
2023-05-21T20:40:24.223Z,28.90
2023-05-21T20:42:53.538Z,27.83
2023-05-21T20:45:21.936Z,26.90
2023-05-21T20:47:49.925Z,27.00
2023-05-21T20:50:17.780Z,28.27
2023-05-21T20:52:47.155Z,26.47
2023-05-21T20:55:14.769Z,29.80
2023-05-21T20:57:42.124Z,26.93
2023-05-21T21:00:11.796Z,30.60
2023-05-21T21:02:38.969Z,29.93
2023-05-21T21:05:10.630Z,30.77
2023-05-21T21:07:37.701Z,34.73
2023-05-21T21:10:05.464Z,26.80
2023-05-21T21:12:32.273Z,25.00
2023-05-21T21:14:59.057Z,28.87
2023-05-21T21:17:25.899Z,28.00
2023-05-21T21:19:52.724Z,31.33
2023-05-21T21:22:19.798Z,27.00
2023-05-21T21:24:47.797Z,33.53
2023-05-21T21:27:14.644Z,28.00
2023-05-21T21:29:41.498Z,27.40
2023-05-21T21:32:08.351Z,28.53
2023-05-21T21:34:35.225Z,26.07
2023-05-21T21:37:02.030Z,24.40
2023-05-21T21:39:28.825Z,25.77
2023-05-21T21:41:55.955Z,25.03
2023-05-21T21:44:22.726Z,26.50
2023-05-21T21:46:49.568Z,33.50
2023-05-21T21:49:19.524Z,25.90
2023-05-21T21:51:46.359Z,28.20
2023-05-21T21:54:13.159Z,29.83
2023-05-21T21:56:40.054Z,26.43
2023-05-21T21:59:06.893Z,27.27
2023-05-21T22:01:34.084Z,25.53
2023-05-21T22:04:01.010Z,25.87
2023-05-21T22:06:28.596Z,28.53
2023-05-21T22:08:55.548Z,24.87
2023-05-21T22:11:22.792Z,25.50
2023-05-21T22:13:49.616Z,25.50
2023-05-21T22:16:16.559Z,24.80
2023-05-21T22:18:43.778Z,29.43
2023-05-21T22:21:14.295Z,27.57
2023-05-21T22:23:41.485Z,25.97
2023-05-21T22:26:09.391Z,24.80
2023-05-21T22:28:36.258Z,28.03
2023-05-21T22:31:03.397Z,25.07
2023-05-21T22:33:30.328Z,31.80
2023-05-21T22:35:57.203Z,29.47
2023-05-21T22:38:24.534Z,26.53
2023-05-21T22:40:51.418Z,30.63
2023-05-21T22:43:18.291Z,29.10
2023-05-21T22:45:45.172Z,35.93
2023-05-21T22:48:12.165Z,28.40
2023-05-21T22:50:39.344Z,30.37
2023-05-21T22:53:07.035Z,26.27
2023-05-21T22:55:33.860Z,25.20
2023-05-21T22:58:00.758Z,26.00
2023-05-21T23:00:27.597Z,28.33
2023-05-21T23:02:54.919Z,37.40
2023-05-21T23:05:22.363Z,27.17
2023-05-21T23:07:49.716Z,27.17
2023-05-21T23:10:16.647Z,25.77
2023-05-21T23:12:43.483Z,28.50
2023-05-21T23:15:10.866Z,26.90
2023-05-21T23:17:38.222Z,26.80
2023-05-21T23:20:07.269Z,27.73
2023-05-21T23:22:34.861Z,26.80
2023-05-21T23:25:02.217Z,30.50
2023-05-21T23:27:29.317Z,28.20
2023-05-21T23:29:56.363Z,34.33
2023-05-21T23:32:23.644Z,31.50
2023-05-21T23:34:50.618Z,32.53
2023-05-21T23:37:17.520Z,26.57
2023-05-21T23:39:48.071Z,28.37
2023-05-21T23:42:15.678Z,26.97
2023-05-21T23:44:42.602Z,27.47
2023-05-21T23:47:09.836Z,25.00
2023-05-21T23:49:36.670Z,25.27
2023-05-21T23:52:03.685Z,27.23
2023-05-21T23:54:30.782Z,27.63
2023-05-21T23:56:57.582Z,31.00
2023-05-21T23:59:24.356Z,25.93
